Flight Track Log - Related Links

Times and Time Zones

All times are in EDT time to prevent confusion due to time zone crossing. See the SKW6345 flight status page for this flight to view local times or setup timezone preferences in your user account.


Time Position Orientation Groundspeed Altitude Reporting Facility
EDT Latitude Longitude Course Direction KTS MPH feet Rate Location/Type
Mon 11:32:16 AM 37.6500 -122.3500 38° Northeast 165 190 1,400  Level Northern Cal TRACON
Mon 11:33:16 AM 37.6833 -122.3000 50° Northeast 222 255 3,200 1,895 Climbing Northern Cal TRACON
Mon 11:34:00 AM 37.6281 -122.4083 120° Southeast  Level FlightAware Approximate
Mon 11:34:10 AM 37.7333 -122.2500 38° Northeast 267 307 5,000  Level Northern Cal TRACON
Mon 11:35:00 AM 37.6935 -122.2899 38° Northeast  Level FlightAware Approximate
Mon 11:36:00 AM 37.7986 -122.1848 38° Northeast  Level FlightAware Approximate
Mon 11:36:12 AM 37.8567 -122.1206 40° Northeast 290 334 9,500  Level Oakland Center
Mon 11:37:00 AM 37.9038 -122.0796 38° Northeast  Level FlightAware Approximate
Mon 11:37:14 AM 37.9253 -122.0564 36° Northeast 306 352 11,300  Level Oakland Center
Mon 11:38:15 AM 37.9967 -121.9869 37° Northeast 321 369 13,200 1,770 Climbing Oakland Center
Mon 11:39:16 AM 38.0686 -121.9172 37° Northeast 326 375 14,900 1,659 Climbing Oakland Center
Mon 11:40:18 AM 38.1586 -121.8303 37° Northeast 340 391 16,600 1,512 Climbing Oakland Center
Mon 11:41:19 AM 38.2353 -121.7553 38° Northeast 348 400 18,000 1,377 Climbing Oakland Center
Mon 11:42:20 AM 38.3167 -121.6811 36° Northeast 358 412 19,400 1,317 Climbing Oakland Center
Mon 11:43:22 AM 38.4025 -121.6106 33° Northeast 368 423 20,700 1,317 Climbing Oakland Center
Mon 11:44:23 AM 38.4975 -121.5331 33° Northeast 373 429 22,100 1,171 Climbing Oakland Center
Mon 11:45:25 AM 38.5764 -121.4664 33° Northeast 375 432 23,100 976 Climbing Oakland Center
Mon 11:46:26 AM 38.6656 -121.3919 33° Northeast 381 438 24,100 836 Climbing Oakland Center
Mon 11:47:27 AM 38.7733 -121.3011 33° Northeast 402 463 24,800 780 Climbing Oakland Center
Mon 11:48:29 AM 38.8697 -121.2203 33° Northeast 409 471 25,700 829 Climbing Oakland Center
Mon 11:49:30 AM 38.9664 -121.1392 33° Northeast 415 478 26,500 683 Climbing Oakland Center
Mon 11:50:32 AM 39.0631 -121.0553 34° Northeast 418 481 27,100 585 Climbing Oakland Center
Mon 11:51:33 AM 39.1619 -120.9725 33° Northeast 422 486 27,700 590 Climbing Oakland Center
Mon 11:52:34 AM 39.2606 -120.8883 33° Northeast 425 489 28,300 585 Climbing Oakland Center
Mon 11:53:36 AM 39.3608 -120.8031 33° Northeast 430 495 28,900 537 Climbing Oakland Center
Mon 11:54:37 AM 39.4614 -120.7167 34° Northeast 435 501 29,400 443 Climbing Oakland Center
Mon 11:55:38 AM 39.5622 -120.6281 34° Northeast 438 504 29,800 390 Climbing Oakland Center
Mon 11:56:40 AM 39.6853 -120.5231 33° Northeast 443 510 30,200 488 Climbing Oakland Center
Mon 11:57:41 AM 39.7739 -120.4106 44° Northeast 445 512 30,800 488 Climbing Oakland Center
Mon 11:58:43 AM 39.8594 -120.2983 45° Northeast 440 506 31,200 439 Climbing Oakland Center
Mon 11:59:44 AM 39.9458 -120.1844 45° Northeast 441 507 31,700 492 Climbing Oakland Center
Mon 12:00:45 PM 40.0347 -120.0664 45° Northeast 443 510 32,200 439 Climbing Oakland Center
Mon 12:01:47 PM 40.1219 -119.9519 45° Northeast 444 511 32,600 390 Climbing Oakland Center
Mon 12:02:48 PM 40.2075 -119.8347 46° Northeast 444 511 33,000 195 Climbing Oakland Center
Mon 12:03:50 PM 40.2956 -119.7169 46° Northeast 450 518 33,000  Level Oakland Center
Mon 12:04:51 PM 40.3853 -119.5958 46° Northeast 458 527 33,000  Level Oakland Center
Mon 12:05:52 PM 40.4764 -119.4719 46° Northeast 468 539 33,000  Level Oakland Center
Mon 12:06:54 PM 40.5678 -119.3461 46° Northeast 473 544 33,000  Level Oakland Center
Mon 12:07:55 PM 40.6792 -119.1944 46° Northeast 478 550 33,000  Level Oakland Center
Mon 12:08:57 PM 40.7711 -119.0675 46° Northeast 478 550 33,000  Level Oakland Center
Mon 12:09:58 PM 40.8572 -118.9492 46° Northeast 481 554 33,000  Level Oakland Center
Mon 12:11:00 PM 40.9600 -118.8064 46° Northeast 480 552 33,000  Level Oakland Center
Mon 12:12:01 PM 41.0475 -118.6828 47° Northeast 479 551 33,000  Level Oakland Center
Mon 12:13:02 PM 41.1361 -118.5594 46° Northeast 482 555 33,000  Level Oakland Center
Mon 12:14:04 PM 41.2358 -118.4175 47° Northeast 474 545 33,000  Level Oakland Center
Mon 12:15:05 PM 41.3239 -118.2942 46° Northeast 477 549 33,000  Level Oakland Center
Mon 12:16:07 PM 41.4117 -118.1711 46° Northeast 477 549 33,000  Level Oakland Center
Mon 12:17:29 PM 41.5408 -117.9856 47° Northeast 474 545 33,000  Level Salt Lake Center
Mon 12:18:31 PM 41.6278 -117.8614 47° Northeast 476 548 33,000  Level Salt Lake Center
Mon 12:19:33 PM 41.7292 -117.7128 48° Northeast 483 556 33,000  Level Salt Lake Center
Mon 12:20:35 PM 41.8147 -117.5850 48° Northeast 480 552 33,000  Level Salt Lake Center
Mon 12:21:37 PM 41.9158 -117.4383 47° Northeast 480 552 33,000  Level Salt Lake Center
Mon 12:22:39 PM 42.0017 -117.3114 48° Northeast 479 551 33,000  Level Salt Lake Center
Mon 12:23:41 PM 42.1028 -117.1639 47° Northeast 480 552 33,000  Level Salt Lake Center
Mon 12:24:43 PM 42.1883 -117.0367 48° Northeast 478 550 33,000  Level Salt Lake Center
Mon 12:25:45 PM 42.2892 -116.8878 47° Northeast 480 552 33,000  Level Salt Lake Center
Mon 12:26:47 PM 42.3767 -116.7550 48° Northeast 483 556 33,000  Level Salt Lake Center
Mon 12:27:49 PM 42.4631 -116.6269 48° Northeast 483 556 33,000  Level Salt Lake Center
Mon 12:28:51 PM 42.5639 -116.4772 48° Northeast 482 555 33,000  Level Salt Lake Center
Mon 12:29:53 PM 42.6503 -116.3464 48° Northeast 486 559 33,000  Level Salt Lake Center
Mon 12:30:55 PM 42.7514 -116.1933 48° Northeast 488 562 33,000  Level Salt Lake Center
Mon 12:31:57 PM 42.8375 -116.0622 48° Northeast 487 560 33,000  Level Salt Lake Center
Mon 12:32:59 PM 42.9375 -115.9067 49° Northeast 490 564 33,000  Level Salt Lake Center
Mon 12:34:01 PM 43.0244 -115.7694 49° Northeast 502 578 33,000  Level Salt Lake Center
Mon 12:35:03 PM 43.1278 -115.6142 48° Northeast 494 568 33,000  Level Salt Lake Center
Mon 12:36:05 PM 43.2142 -115.4794 49° Northeast 495 570 33,000  Level Salt Lake Center
Mon 12:37:07 PM 43.3144 -115.3228 49° Northeast 492 566 33,000  Level Salt Lake Center
Mon 12:38:09 PM 43.4008 -115.1869 49° Northeast 494 568 33,000  Level Salt Lake Center
Mon 12:39:11 PM 43.5019 -115.0269 49° Northeast 496 571 33,000  Level Salt Lake Center
Mon 12:40:13 PM 43.5881 -114.8908 49° Northeast 494 568 33,000  Level Salt Lake Center
Mon 12:41:15 PM 43.6894 -114.7303 49° Northeast 499 574 33,000  Level Salt Lake Center
Mon 12:42:17 PM 43.7747 -114.5914 50° Northeast 498 573 33,000  Level Salt Lake Center
Mon 12:43:20 PM 43.8767 -114.4294 49° Northeast 499 574 33,000  Level Salt Lake Center
Mon 12:44:22 PM 43.9622 -114.2892 50° Northeast 499 574 33,000  Level Salt Lake Center
Mon 12:45:24 PM 44.0619 -114.1253 50° Northeast 497 572 33,000  Level Salt Lake Center
Mon 12:46:26 PM 44.1475 -113.9833 50° Northeast 499 574 33,000  Level Salt Lake Center
Mon 12:47:28 PM 44.2356 -113.8361 50° Northeast 502 578 33,000  Level Salt Lake Center
Mon 12:48:30 PM 44.3367 -113.6686 50° Northeast 505 581 33,000  Level Salt Lake Center
Mon 12:49:32 PM 44.4239 -113.5242 50° Northeast 506 582 33,000  Level Salt Lake Center
Mon 12:50:34 PM 44.5264 -113.3556 50° Northeast 508 585 33,000  Level Salt Lake Center
Mon 12:51:36 PM 44.6106 -113.2100 51° Northeast 505 581 33,000 -484 Level Salt Lake Center
Mon 12:52:38 PM 44.7122 -113.0389 50° Northeast 512 589 32,000 -1,161 Descending Salt Lake Center
Mon 12:53:40 PM 44.8031 -112.8825 51° Northeast 534 615 30,600 -1,548 Descending Salt Lake Center
Mon 12:54:42 PM 44.9067 -112.7053 50° Northeast 521 600 28,800 -1,548 Descending Salt Lake Center
Mon 12:55:44 PM 44.9872 -112.5658 51° Northeast 481 554 27,400 -1,355 Descending Salt Lake Center
Mon 12:56:46 PM 45.0642 -112.4328 51° Northeast 458 527 26,000 -1,500 Descending Salt Lake Center
Mon 12:57:48 PM 45.1522 -112.2808 51° Northeast 448 516 24,300 -1,548 Descending Salt Lake Center
Mon 12:58:50 PM 45.2233 -112.1553 51° Northeast 434 499 22,800 -1,500 Descending Salt Lake Center
Mon 12:59:52 PM 45.3028 -112.0153 51° Northeast 423 487 21,200 -1,500 Descending Salt Lake Center
Mon 01:00:54 PM 45.3758 -111.8853 51° Northeast 422 486 19,700 -1,452 Descending Salt Lake Center
Mon 01:01:56 PM 45.4481 -111.7589 51° Northeast 416 479 18,200 -1,500 Descending Salt Lake Center
Mon 01:02:58 PM 45.5181 -111.6325 52° Northeast 410 472 16,600 -2,081 Descending Salt Lake Center
Mon 01:04:00 PM 45.5969 -111.4919 51° Northeast 385 443 13,900 -2,516 Descending Salt Lake Center
Mon 01:05:02 PM 45.6594 -111.3886 49° Northeast 355 409 11,400 -2,565 Descending Salt Lake Center
Mon 01:06:04 PM 45.7425 -111.3731 North 319 367 8,600 -2,256 Descending Salt Lake Center
Mon 01:07:07 PM 45.8211 -111.3658 North 292 336 6,700 -960 Descending Salt Lake Center
Mon 01:08:09 PM 45.8550 -111.2950 55° Northeast 236 272 6,600 -194 Descending Salt Lake Center
Mon 01:09:11 PM 45.8331 -111.2292 116° Southeast 204 235 6,300 581 Descending Salt Lake Center
Mon 01:10:13 PM 45.7942 -111.1711 134° Southeast 200 230 7,800 1,597 Climbing Salt Lake Center
Mon 01:11:15 PM 45.7372 -111.1503 166° South 214 246 9,600 1,790 Climbing Salt Lake Center
Mon 01:12:17 PM 45.7000 -111.2103 228° Southwest 206 237 11,500 1,161 Climbing Salt Lake Center
Mon 01:13:19 PM 45.6792 -111.2825 248° West 213 245 12,000 194 Climbing Salt Lake Center
Mon 01:14:21 PM 45.7156 -111.3478 309° West 212 244 11,900 -48 Descending Salt Lake Center
Mon 01:15:23 PM 45.7589 -111.4081 316° Northwest 214 246 11,900 48 Level Salt Lake Center
Mon 01:16:25 PM 45.8175 -111.4003 North 241 277 12,000 48 Climbing Salt Lake Center
Mon 01:17:27 PM 45.8644 -111.3231 49° Northeast 255 293 12,000  Level Salt Lake Center
Mon 01:18:29 PM 45.8503 -111.2247 102° East 262 302 12,000  Level Salt Lake Center
Mon 01:19:31 PM 45.8058 -111.1417 127° Southeast 258 297 12,000  Level Salt Lake Center
Mon 01:20:33 PM 45.7458 -111.0797 144° Southeast 254 292 12,000 -48 Level Salt Lake Center
Mon 01:21:36 PM 45.6872 -111.1042 196° South 241 277 11,900  Descending Salt Lake Center
Mon 01:22:38 PM 45.6961 -111.1747 280° West 212 244 12,000 49 Climbing Salt Lake Center
Mon 01:23:39 PM 45.7403 -111.2378 315° West 217 250 12,000  Level Salt Lake Center
Mon 01:24:41 PM 45.7936 -111.3100 317° Northwest 217 250 12,000  Level Salt Lake Center
Mon 01:25:43 PM 45.8408 -111.3539 327° Northwest 214 246 12,000  Level Salt Lake Center
Mon 01:26:45 PM 45.8922 -111.2911 40° Northeast 235 270 12,000 -48 Level Salt Lake Center
Mon 01:27:48 PM 45.8711 -111.2000 108° East 250 288 11,900  Descending Salt Lake Center
Mon 01:28:49 PM 45.8231 -111.1294 134° Southeast 244 281 12,000 48 Climbing Salt Lake Center
Mon 01:29:52 PM 45.7597 -111.0739 149° Southeast 248 285 12,000 -48 Level Salt Lake Center
Mon 01:30:54 PM 45.7033 -111.1039 200° South 231 266 11,900  Descending Salt Lake Center
Mon 01:31:56 PM 45.6942 -111.1797 260° West 210 242 12,000  Climbing Salt Lake Center
Mon 01:32:58 PM 45.7225 -111.2553 298° West 212 244 11,900 -48 Descending Salt Lake Center
Mon 01:34:00 PM 45.7644 -111.3167 314° West 212 244 11,900 48 Level Salt Lake Center
Mon 01:35:02 PM 45.8083 -111.3725 318° Northwest 211 243 12,000 48 Climbing Salt Lake Center
Mon 01:36:04 PM 45.8603 -111.3575 11° North 231 266 12,000  Level Salt Lake Center
Mon 01:37:06 PM 45.8553 -111.2697 95° East 248 285 12,000  Level Salt Lake Center
Mon 01:38:08 PM 45.7986 -111.1769 131° Southeast 258 297 12,000  Level Salt Lake Center
Mon 01:39:10 PM 45.7456 -111.1650 171° South 258 297 12,000 -48 Level Salt Lake Center
Mon 01:40:12 PM 45.7322 -111.2342 255° West 218 251 11,900 -339 Descending Salt Lake Center
Mon 01:41:14 PM 45.7672 -111.3003 307° West 211 243 11,300 -726 Descending Salt Lake Center
Mon 01:42:16 PM 45.8100 -111.3578 317° Northwest 210 242 10,400 -726 Descending Salt Lake Center
Mon 01:43:18 PM 45.8539 -111.4131 319° Northwest 209 241 9,800 -1,210 Descending Salt Lake Center
Mon 01:44:20 PM 45.8983 -111.4003 11° North 218 251 7,900 -1,161 Descending Salt Lake Center
Mon 01:45:22 PM 45.8742 -111.3144 112° Southeast 203 234 7,400 -823 Descending Salt Lake Center
Mon 01:46:24 PM 45.8514 -111.2608 121° Southeast 177 204 6,200 -968 Descending Salt Lake Center
Mon 01:47:26 PM 45.8222 -111.2147 132° Southeast 168 193 5,400 -774 Descending Salt Lake Center
Mon 01:48:28 PM 45.7919 -111.1722 136° Southeast 160 184 4,600 -774 Descending Salt Lake Center

Login

Don't have an account? Register now (free) for customized features, flight alerts, and more!